Time;durP1;ratioP1;P1;durP2;ratioP2;P2;SDS_P1;SDS_P2;PMS_P1;PMS_P2;Temp;Humidity;BMP_temperature;BMP_pressure;BME280_temperature;BME280_humidity;BME280_pressure;Samples;Min_cycle;Max_cycle;Signal;HPM_P1;HPM_P2
2022/12/11 00:02:19;;;;;;;0.10;0.10;;;0.80;99.90;;;;;;5067704;28;20205;-80
2022/12/11 00:04:45;;;;;;;0.10;0.10;;;0.80;99.90;;;;;;5060988;28;20544;-80
2022/12/11 00:07:10;;;;;;;0.10;0.10;;;0.80;99.90;;;;;;5069291;28;20215;-80
2022/12/11 00:09:36;;;;;;;0.00;0.00;;;0.70;99.90;;;;;;5063641;28;20525;-80
2022/12/11 00:12:02;;;;;;;0.10;0.10;;;0.60;99.90;;;;;;5070148;28;20286;-79
2022/12/11 00:14:28;;;;;;;0.10;0.10;;;0.70;99.90;;;;;;5056948;28;20278;-78
2022/12/11 00:16:54;;;;;;;0.10;0.10;;;0.70;99.90;;;;;;5069528;28;20204;-80
2022/12/11 00:19:19;;;;;;;0.10;0.10;;;0.60;99.90;;;;;;5058727;28;20244;-79
2022/12/11 00:21:45;;;;;;;0.10;0.10;;;0.60;99.90;;;;;;5069442;28;20297;-78
2022/12/11 00:24:10;;;;;;;0.10;0.10;;;0.70;99.90;;;;;;5067555;28;20197;-80
2022/12/11 00:26:37;;;;;;;0.10;0.10;;;0.80;99.90;;;;;;5064629;28;20201;-80
2022/12/11 00:29:02;;;;;;;0.10;0.10;;;0.90;99.90;;;;;;5062663;28;20185;-80
2022/12/11 00:31:28;;;;;;;0.00;0.00;;;0.80;99.90;;;;;;5063294;28;20190;-79
2022/12/11 00:33:54;;;;;;;0.00;0.00;;;0.90;99.90;;;;;;5068313;28;20195;-80
2022/12/11 00:36:21;;;;;;;0.10;0.10;;;1.00;99.90;;;;;;5068284;28;20178;-80
2022/12/11 00:38:47;;;;;;;0.10;0.10;;;1.10;99.90;;;;;;5050514;28;20212;-80
2022/12/11 00:41:14;;;;;;;0.00;0.00;;;1.10;99.90;;;;;;5053324;28;20183;-79
2022/12/11 00:43:40;;;;;;;0.10;0.10;;;1.10;99.90;;;;;;5064235;28;20683;-80
2022/12/11 00:46:05;;;;;;;0.10;0.10;;;1.10;99.90;;;;;;5066058;28;20216;-80
2022/12/11 00:48:31;;;;;;;0.10;0.10;;;1.20;99.90;;;;;;5062364;28;20202;-80
2022/12/11 00:50:56;;;;;;;0.10;0.10;;;1.20;99.90;;;;;;5069136;28;20183;-80
2022/12/11 00:53:22;;;;;;;0.00;0.00;;;1.20;99.90;;;;;;5069385;28;20275;-80
2022/12/11 00:55:48;;;;;;;0.10;0.10;;;1.30;99.90;;;;;;5063736;28;20196;-80
2022/12/11 00:58:13;;;;;;;0.10;0.10;;;1.30;99.90;;;;;;5063080;28;20288;-80
2022/12/11 01:00:40;;;;;;;0.10;0.10;;;1.40;99.90;;;;;;5064827;28;20210;-80
2022/12/11 01:03:06;;;;;;;0.10;0.10;;;1.40;99.90;;;;;;5064190;28;20235;-80
2022/12/11 01:05:32;;;;;;;0.00;0.00;;;1.20;99.90;;;;;;5074762;28;20177;-80
2022/12/11 01:07:58;;;;;;;0.00;0.00;;;0.70;99.90;;;;;;5068566;28;20277;-79
2022/12/11 01:10:24;;;;;;;0.10;0.10;;;0.90;99.90;;;;;;5069751;28;20548;-81
2022/12/11 01:13:05;;;;;;;0.10;0.10;;;1.10;99.90;;;;;;5074883;28;20405;-80
2022/12/11 01:15:36;;;;;;;0.10;0.10;;;0.90;99.90;;;;;;5064786;28;20274;-80
2022/12/11 01:18:02;;;;;;;0.10;0.10;;;0.90;99.90;;;;;;5068449;28;20209;-80
2022/12/11 01:20:28;;;;;;;0.00;0.00;;;0.80;99.90;;;;;;5074333;28;20224;-80
2022/12/11 01:22:55;;;;;;;0.10;0.10;;;0.60;99.90;;;;;;5065698;28;20206;-81
2022/12/11 01:25:22;;;;;;;0.10;0.10;;;0.40;99.90;;;;;;5064525;28;20580;-79
2022/12/11 01:27:50;;;;;;;0.10;0.10;;;0.30;99.90;;;;;;5072038;28;20677;-80
2022/12/11 01:30:17;;;;;;;0.10;0.10;;;0.50;99.90;;;;;;5067047;28;20173;-80
2022/12/11 01:32:42;;;;;;;0.00;0.00;;;0.60;99.90;;;;;;5072956;28;20226;-79
2022/12/11 01:35:10;;;;;;;0.10;0.10;;;0.60;99.90;;;;;;5069206;28;20686;-80
2022/12/11 01:37:35;;;;;;;0.10;0.10;;;0.60;99.90;;;;;;5073412;28;20206;-80
2022/12/11 01:40:02;;;;;;;0.10;0.10;;;0.50;99.90;;;;;;5061336;28;20174;-79
2022/12/11 01:42:28;;;;;;;0.10;0.10;;;0.60;99.90;;;;;;5061886;28;20198;-80
2022/12/11 01:45:22;;;;;;;0.10;0.10;;;0.60;99.90;;;;;;5060693;28;20753;-80
2022/12/11 01:47:58;;;;;;;0.10;0.10;;;0.70;99.90;;;;;;5069567;28;20259;-80
2022/12/11 01:50:24;;;;;;;0.10;0.10;;;0.80;99.90;;;;;;5061039;28;20270;-80
2022/12/11 01:52:50;;;;;;;0.10;0.10;;;0.80;99.90;;;;;;5064053;28;20607;-80
2022/12/11 01:55:17;;;;;;;0.07;0.07;;;0.40;99.90;;;;;;5067210;28;20233;-80
2022/12/11 01:57:47;;;;;;;0.10;0.10;;;0.30;99.90;;;;;;5070013;28;20205;-79
2022/12/11 02:00:13;;;;;;;0.00;0.00;;;0.00;99.90;;;;;;5066664;28;20316;-80
2022/12/11 02:02:39;;;;;;;0.03;0.03;;;0.00;99.90;;;;;;5069608;28;20719;-80
2022/12/11 02:05:06;;;;;;;0.10;0.10;;;0.10;99.90;;;;;;5066994;28;20177;-80
2022/12/11 02:07:57;;;;;;;0.10;0.10;;;0.30;99.90;;;;;;5065042;28;20213;-80
2022/12/11 02:10:42;;;;;;;0.10;0.10;;;0.40;99.90;;;;;;5067447;28;20195;-79
2022/12/11 02:13:16;;;;;;;0.00;0.00;;;0.50;99.90;;;;;;5065686;28;20197;-80
2022/12/11 02:15:57;;;;;;;0.10;0.10;;;0.00;99.90;;;;;;5068633;28;20186;-80
2022/12/11 02:18:37;;;;;;;0.07;0.07;;;0.00;99.90;;;;;;5071465;28;20677;-79
2022/12/11 02:21:10;;;;;;;0.10;0.10;;;0.10;99.90;;;;;;5066368;28;20219;-79
2022/12/11 02:24:00;;;;;;;0.00;0.00;;;0.30;99.90;;;;;;5066583;28;20207;-80
2022/12/11 02:27:01;;;;;;;0.10;0.10;;;0.40;99.90;;;;;;5064218;28;20265;-80
2022/12/11 02:29:35;;;;;;;0.10;0.10;;;0.60;99.90;;;;;;5067369;28;20732;-80
2022/12/11 02:32:12;;;;;;;0.10;0.10;;;0.70;99.90;;;;;;5064651;28;20224;-80
2022/12/11 02:35:01;;;;;;;0.10;0.10;;;0.70;99.90;;;;;;5087083;28;20749;-80
2022/12/11 02:37:30;;;;;;;0.10;0.10;;;0.80;99.90;;;;;;5072677;28;20230;-80
2022/12/11 02:39:56;;;;;;;0.10;0.10;;;0.90;99.90;;;;;;5070444;28;20184;-80
2022/12/11 02:42:25;;;;;;;0.10;0.10;;;0.90;99.90;;;;;;5056551;28;20219;-80
2022/12/11 02:44:52;;;;;;;0.10;0.10;;;0.80;99.90;;;;;;5063713;28;20639;-80
2022/12/11 02:47:20;;;;;;;0.00;0.00;;;0.50;99.90;;;;;;5069760;28;20211;-80
2022/12/11 02:49:48;;;;;;;0.10;0.10;;;0.50;99.90;;;;;;5067313;28;20175;-80
2022/12/11 02:52:17;;;;;;;0.10;0.10;;;0.60;99.90;;;;;;5069286;28;20183;-80
2022/12/11 02:54:44;;;;;;;0.10;0.10;;;0.70;99.90;;;;;;5080871;28;20186;-80
2022/12/11 02:57:26;;;;;;;0.10;0.10;;;0.40;99.90;;;;;;5067458;28;20234;-80
2022/12/11 02:59:51;;;;;;;0.00;0.00;;;0.50;99.90;;;;;;5065136;28;20181;-80
2022/12/11 03:02:17;;;;;;;0.10;0.10;;;0.60;99.90;;;;;;5071793;28;20228;-79
2022/12/11 03:04:44;;;;;;;0.03;0.03;;;0.60;99.90;;;;;;5066527;28;20189;-80
2022/12/11 03:07:15;;;;;;;0.10;0.10;;;0.30;99.90;;;;;;5064548;28;20203;-80
2022/12/11 03:09:43;;;;;;;0.10;0.10;;;0.20;99.90;;;;;;5067989;28;20728;-79
2022/12/11 03:12:11;;;;;;;0.00;0.00;;;0.50;99.90;;;;;;5068344;28;20174;-80
2022/12/11 03:14:39;;;;;;;0.10;0.10;;;0.40;99.90;;;;;;5064603;28;20196;-80
2022/12/11 03:17:43;;;;;;;0.10;0.10;;;0.40;99.90;;;;;;5063351;28;20199;-80
2022/12/11 03:20:35;;;;;;;0.10;0.10;;;0.40;99.90;;;;;;5064291;28;20185;-80
2022/12/11 03:23:06;;;;;;;0.10;0.10;;;0.50;99.90;;;;;;5070629;28;20215;-80
2022/12/11 03:26:14;;;;;;;0.10;0.10;;;0.60;99.90;;;;;;5070068;28;20659;-80
2022/12/11 03:28:58;;;;;;;0.10;0.10;;;0.70;99.90;;;;;;4972231;28;20202;-80
2022/12/11 03:31:34;;;;;;;0.07;0.07;;;0.60;99.90;;;;;;4989741;28;20581;-79
2022/12/11 03:34:08;;;;;;;0.10;0.10;;;0.40;99.90;;;;;;5042286;28;20190;-80
2022/12/11 03:36:36;;;;;;;0.10;0.10;;;0.40;99.90;;;;;;5057310;28;20878;-79
2022/12/11 03:39:23;;;;;;;0.10;0.10;;;0.50;99.90;;;;;;5062027;28;20210;-80
2022/12/11 03:41:50;;;;;;;0.10;0.10;;;0.40;99.90;;;;;;5068234;28;20183;-80
2022/12/11 03:44:17;;;;;;;0.00;0.00;;;0.60;99.90;;;;;;5063731;28;20181;-80
2022/12/11 03:46:44;;;;;;;0.00;0.00;;;0.40;99.90;;;;;;5069310;28;20229;-79
2022/12/11 03:49:16;;;;;;;0.10;0.10;;;0.50;99.90;;;;;;5063842;28;20247;-80
2022/12/11 03:51:45;;;;;;;0.10;0.10;;;0.60;99.90;;;;;;5066898;28;20185;-80
2022/12/11 03:54:11;;;;;;;0.00;0.00;;;0.60;99.90;;;;;;5071340;28;20281;-80
2022/12/11 03:56:39;;;;;;;0.10;0.10;;;0.50;99.90;;;;;;5067220;28;20206;-79
2022/12/11 03:59:05;;;;;;;0.10;0.10;;;0.50;99.90;;;;;;5060148;28;20334;-80
2022/12/11 04:01:30;;;;;;;0.10;0.10;;;0.70;99.90;;;;;;5068400;28;20664;-80
2022/12/11 04:03:56;;;;;;;0.10;0.10;;;0.60;99.90;;;;;;5061526;28;20212;-80
2022/12/11 04:06:21;;;;;;;0.10;0.10;;;0.40;99.90;;;;;;5068616;28;20243;-79
2022/12/11 04:08:47;;;;;;;0.10;0.10;;;0.30;99.90;;;;;;5070004;28;20274;-80
2022/12/11 04:16:58;;;;;;;0.10;0.10;;;0.80;99.90;;;;;;5065261;28;20582;-80
2022/12/11 04:24:58;;;;;;;0.10;0.10;;;0.50;99.90;;;;;;5069240;28;20185;-80
2022/12/11 04:30:12;;;;;;;0.10;0.10;;;0.20;99.90;;;;;;5070364;28;20190;-80
2022/12/11 04:32:37;;;;;;;0.10;0.10;;;0.10;99.90;;;;;;5070364;28;20179;-80
2022/12/11 04:35:05;;;;;;;0.10;0.10;;;0.20;99.90;;;;;;5058427;28;20185;-80
2022/12/11 04:37:30;;;;;;;0.00;0.00;;;0.00;99.90;;;;;;5068216;28;20204;-80
2022/12/11 04:39:56;;;;;;;0.10;0.10;;;-0.20;99.90;;;;;;5065780;28;20189;-80
2022/12/11 04:42:21;;;;;;;0.10;0.10;;;-0.20;99.90;;;;;;5069406;28;20283;-80
2022/12/11 04:44:47;;;;;;;0.03;0.03;;;0.00;99.90;;;;;;5064435;28;20175;-80
2022/12/11 04:47:12;;;;;;;0.10;0.10;;;-0.10;99.90;;;;;;5066367;28;20283;-80
2022/12/11 04:49:38;;;;;;;0.00;0.00;;;0.00;99.90;;;;;;5058751;28;20185;-80
2022/12/11 04:52:04;;;;;;;0.00;0.00;;;0.10;99.90;;;;;;5063941;28;20177;-80
2022/12/11 04:54:30;;;;;;;0.10;0.10;;;0.20;99.90;;;;;;5063596;28;20210;-79
2022/12/11 04:56:55;;;;;;;0.10;0.10;;;0.30;99.90;;;;;;5067226;28;20246;-80
2022/12/11 04:59:21;;;;;;;0.10;0.10;;;0.50;99.90;;;;;;5067535;28;20231;-79
2022/12/11 05:01:47;;;;;;;0.00;0.00;;;0.60;99.90;;;;;;5068902;28;20731;-80
2022/12/11 05:04:12;;;;;;;0.00;0.00;;;0.80;99.90;;;;;;5067518;28;20581;-79
2022/12/11 05:06:38;;;;;;;0.10;0.10;;;1.00;99.90;;;;;;5062479;28;20257;-80
2022/12/11 05:09:03;;;;;;;0.10;0.10;;;1.10;99.90;;;;;;5065552;28;20174;-81
2022/12/11 05:11:29;;;;;;;0.10;0.10;;;1.20;99.90;;;;;;5068643;28;20678;-79
2022/12/11 05:13:55;;;;;;;0.10;0.10;;;1.20;99.90;;;;;;5067549;28;20672;-79
2022/12/11 05:16:20;;;;;;;0.00;0.00;;;1.20;99.90;;;;;;5053982;28;20215;-79
2022/12/11 05:18:48;;;;;;;0.10;0.10;;;1.30;99.90;;;;;;5064664;28;20186;-80
2022/12/11 05:21:14;;;;;;;0.00;0.00;;;1.30;99.90;;;;;;5058393;28;20795;-80
2022/12/11 05:23:41;;;;;;;0.10;0.10;;;1.40;99.90;;;;;;5063052;28;20235;-80
2022/12/11 05:26:12;;;;;;;0.10;0.10;;;1.40;99.90;;;;;;5062720;28;20182;-79
2022/12/11 05:28:38;;;;;;;0.10;0.10;;;1.50;99.90;;;;;;5065583;28;20614;-80
2022/12/11 05:31:07;;;;;;;0.10;0.10;;;1.50;99.90;;;;;;5070738;28;20654;-80
2022/12/11 05:33:33;;;;;;;0.10;0.10;;;1.50;99.90;;;;;;5058999;28;20172;-79
2022/12/11 05:35:59;;;;;;;0.10;0.10;;;1.50;99.90;;;;;;5064695;28;20186;-80
2022/12/11 05:38:25;;;;;;;0.00;0.00;;;1.50;99.90;;;;;;5068287;28;20257;-80
2022/12/11 05:40:58;;;;;;;0.10;0.10;;;1.40;99.90;;;;;;5068671;28;20524;-80
2022/12/11 05:43:24;;;;;;;0.00;0.00;;;1.50;99.90;;;;;;5066181;28;20642;-79
2022/12/11 05:45:50;;;;;;;0.10;0.10;;;1.30;99.90;;;;;;5070426;28;20244;-79
2022/12/11 05:48:16;;;;;;;0.10;0.10;;;0.60;99.90;;;;;;5061836;28;20206;-80
2022/12/11 05:50:41;;;;;;;0.00;0.00;;;0.30;99.90;;;;;;5067494;28;20195;-79
2022/12/11 05:53:07;;;;;;;0.10;0.10;;;-0.10;99.90;;;;;;5065069;28;20572;-80
2022/12/11 05:55:35;;;;;;;0.07;0.07;;;-0.20;99.90;;;;;;5067708;28;20647;-80
2022/12/11 05:58:01;;;;;;;0.10;0.10;;;-0.20;99.90;;;;;;5071747;28;20271;-80
2022/12/11 06:00:26;;;;;;;0.00;0.00;;;-0.20;99.90;;;;;;5067135;28;20183;-80
2022/12/11 06:02:52;;;;;;;0.10;0.10;;;0.00;99.90;;;;;;5065555;28;20220;-80
2022/12/11 06:05:18;;;;;;;0.10;0.10;;;0.00;99.90;;;;;;5063309;28;20217;-79
2022/12/11 06:07:43;;;;;;;0.10;0.10;;;0.00;99.90;;;;;;5066471;28;20206;-80
2022/12/11 06:10:09;;;;;;;0.10;0.10;;;0.20;99.90;;;;;;5069782;28;20187;-80
2022/12/11 06:12:35;;;;;;;0.10;0.10;;;0.40;99.90;;;;;;5064876;28;20181;-80
2022/12/11 06:15:00;;;;;;;0.00;0.00;;;0.60;99.90;;;;;;5061180;28;20198;-79
2022/12/11 06:17:26;;;;;;;0.10;0.10;;;0.80;99.90;;;;;;5063352;28;20203;-80
2022/12/11 06:19:51;;;;;;;0.00;0.00;;;0.80;99.90;;;;;;5063559;28;20203;-80
2022/12/11 06:22:17;;;;;;;0.10;0.10;;;0.80;99.90;;;;;;5070237;28;20205;-79
2022/12/11 06:24:42;;;;;;;0.10;0.10;;;0.70;99.90;;;;;;5071581;28;20520;-80
2022/12/11 06:27:08;;;;;;;0.10;0.10;;;0.70;99.90;;;;;;5071097;28;20708;-80
2022/12/11 06:29:34;;;;;;;0.10;0.10;;;0.90;99.90;;;;;;5074248;28;20184;-80
2022/12/11 06:32:00;;;;;;;0.10;0.10;;;1.00;99.90;;;;;;5080162;28;20190;-79
2022/12/11 06:34:25;;;;;;;0.10;0.10;;;1.20;99.90;;;;;;5075118;28;20197;-80
2022/12/11 06:36:51;;;;;;;0.10;0.10;;;1.20;99.90;;;;;;5074528;28;20768;-79
2022/12/11 06:39:16;;;;;;;0.00;0.00;;;1.20;99.90;;;;;;5072421;28;20663;-80
2022/12/11 06:41:42;;;;;;;0.10;0.10;;;1.20;99.90;;;;;;5069751;28;20286;-79
2022/12/11 06:44:08;;;;;;;0.10;0.10;;;1.30;99.90;;;;;;5067703;28;20498;-79
2022/12/11 06:46:33;;;;;;;0.10;0.10;;;1.40;99.90;;;;;;5064299;28;20175;-79
2022/12/11 06:48:59;;;;;;;0.10;0.10;;;1.40;99.90;;;;;;5071233;28;20178;-79
2022/12/11 06:51:25;;;;;;;0.10;0.10;;;1.20;99.90;;;;;;5066084;28;20187;-79
2022/12/11 06:53:55;;;;;;;0.10;0.10;;;1.20;99.90;;;;;;5065715;28;20195;-79
2022/12/11 06:56:21;;;;;;;0.10;0.10;;;1.20;99.90;;;;;;5065666;28;20197;-79
2022/12/11 06:58:47;;;;;;;0.10;0.10;;;1.30;99.90;;;;;;5064650;28;20187;-80
2022/12/11 07:01:21;;;;;;;0.10;0.10;;;1.40;99.90;;;;;;5064214;28;20280;-80
2022/12/11 07:03:47;;;;;;;0.10;0.10;;;1.50;99.90;;;;;;5064932;28;20222;-79
2022/12/11 07:06:14;;;;;;;0.10;0.10;;;1.50;99.90;;;;;;5065512;28;20705;-79
2022/12/11 07:08:40;;;;;;;0.00;0.00;;;1.30;99.90;;;;;;5065203;28;20262;-80
2022/12/11 07:11:11;;;;;;;0.07;0.07;;;1.30;99.90;;;;;;5064165;28;20190;-82
2022/12/11 07:13:37;;;;;;;0.10;0.10;;;1.30;99.90;;;;;;5064852;28;20239;-82
2022/12/11 07:16:04;;;;;;;0.10;0.10;;;1.00;99.90;;;;;;5063422;28;20231;-79
2022/12/11 07:18:33;;;;;;;0.10;0.10;;;1.10;99.90;;;;;;5064730;28;20359;-81
2022/12/11 07:21:01;;;;;;;0.00;0.00;;;1.20;99.90;;;;;;5064302;28;20206;-80
2022/12/11 07:23:28;;;;;;;0.10;0.10;;;1.30;99.90;;;;;;5064891;28;20290;-80
2022/12/11 07:25:55;;;;;;;0.10;0.10;;;1.50;99.90;;;;;;5063392;28;20878;-80
2022/12/11 07:28:20;;;;;;;0.10;0.10;;;1.10;99.90;;;;;;5065259;28;20429;-80
2022/12/11 07:30:46;;;;;;;0.03;0.03;;;1.00;99.90;;;;;;5062983;28;20200;-79
2022/12/11 07:33:11;;;;;;;0.10;0.10;;;1.10;99.90;;;;;;5060941;28;20657;-80
2022/12/11 07:35:37;;;;;;;0.10;0.10;;;0.80;99.90;;;;;;5062841;28;20191;-79
2022/12/11 07:38:03;;;;;;;0.00;0.00;;;0.60;99.90;;;;;;5064659;28;20224;-79
2022/12/11 07:40:28;;;;;;;0.10;0.10;;;0.90;99.90;;;;;;5065194;28;20190;-80
2022/12/11 07:42:54;;;;;;;0.10;0.10;;;1.10;99.90;;;;;;5065761;28;20215;-79
2022/12/11 07:45:19;;;;;;;0.10;0.10;;;1.00;99.90;;;;;;5064826;28;20184;-80
2022/12/11 07:47:45;;;;;;;0.10;0.10;;;1.20;99.90;;;;;;5064450;28;20256;-84
2022/12/11 07:50:10;;;;;;;0.10;0.10;;;1.30;99.90;;;;;;5064489;28;20222;-80
2022/12/11 07:52:36;;;;;;;0.00;0.00;;;1.40;99.90;;;;;;5061392;28;20214;-80
2022/12/11 07:55:02;;;;;;;0.10;0.10;;;1.20;99.90;;;;;;5061333;28;20191;-80
2022/12/11 07:57:28;;;;;;;0.03;0.03;;;0.50;99.90;;;;;;5061621;28;20210;-80
2022/12/11 07:59:54;;;;;;;0.10;0.10;;;0.60;99.90;;;;;;5061900;28;20195;-79
2022/12/11 08:02:20;;;;;;;0.10;0.10;;;0.20;99.90;;;;;;5061894;28;20239;-80
2022/12/11 08:04:46;;;;;;;0.10;0.10;;;0.20;99.90;;;;;;5062774;28;20221;-79
2022/12/11 08:07:12;;;;;;;0.00;0.00;;;0.10;99.90;;;;;;5063126;28;20266;-80
2022/12/11 08:09:38;;;;;;;0.10;0.10;;;0.00;99.90;;;;;;5064231;28;20241;-79
2022/12/11 08:12:03;;;;;;;0.10;0.10;;;0.10;99.90;;;;;;5062527;28;20182;-79
2022/12/11 08:14:29;;;;;;;0.00;0.00;;;0.40;99.90;;;;;;5062777;28;20251;-79
2022/12/11 08:16:56;;;;;;;0.10;0.10;;;0.70;99.90;;;;;;5063223;28;20828;-80
2022/12/11 08:19:21;;;;;;;0.00;0.00;;;0.80;99.90;;;;;;5063418;28;22076;-79
2022/12/11 08:21:47;;;;;;;0.10;0.10;;;0.80;99.90;;;;;;5065042;28;20235;-80
2022/12/11 08:24:15;;;;;;;0.20;0.20;;;0.90;99.90;;;;;;5063790;28;20194;-80
2022/12/11 08:26:41;;;;;;;0.00;0.00;;;1.20;99.90;;;;;;5062095;28;20213;-80
2022/12/11 08:29:06;;;;;;;0.10;0.10;;;1.40;99.90;;;;;;5062730;28;20195;-80
2022/12/11 08:31:32;;;;;;;0.10;0.10;;;1.50;99.90;;;;;;5063251;28;20187;-80
2022/12/11 08:33:58;;;;;;;0.10;0.10;;;1.70;99.90;;;;;;5062601;28;20221;-80
2022/12/11 08:36:24;;;;;;;0.10;0.10;;;1.80;99.90;;;;;;5063043;28;20192;-79
2022/12/11 08:38:50;;;;;;;0.10;0.10;;;1.70;99.90;;;;;;5064746;28;20663;-80
2022/12/11 08:41:22;;;;;;;0.10;0.10;;;1.90;99.90;;;;;;5078879;28;20285;-80
2022/12/11 08:43:47;;;;;;;0.10;0.10;;;2.00;99.90;;;;;;5062414;28;20759;-79
2022/12/11 08:46:14;;;;;;;0.10;0.10;;;2.00;99.90;;;;;;5064301;28;20274;-79
2022/12/11 08:48:41;;;;;;;0.10;0.10;;;2.10;99.90;;;;;;5058872;28;20280;-80
2022/12/11 08:51:11;;;;;;;0.10;0.10;;;2.10;99.90;;;;;;5059986;28;20184;-80
2022/12/11 08:53:37;;;;;;;0.03;0.03;;;2.20;99.90;;;;;;5062172;28;20189;-83
2022/12/11 08:56:06;;;;;;;0.00;0.00;;;2.20;99.90;;;;;;5061775;28;20190;-79
2022/12/11 08:58:32;;;;;;;0.00;0.00;;;2.10;99.90;;;;;;5079906;28;20493;-80
2022/12/11 09:00:57;;;;;;;0.07;0.07;;;2.10;99.90;;;;;;5064153;28;20187;-80
2022/12/11 09:03:23;;;;;;;0.10;0.10;;;2.20;99.90;;;;;;5063656;28;21185;-80
2022/12/11 09:05:49;;;;;;;0.10;0.10;;;2.30;99.90;;;;;;5062634;28;20179;-80
2022/12/11 09:08:15;;;;;;;0.10;0.10;;;2.40;99.90;;;;;;5060929;28;20197;-80
2022/12/11 09:10:40;;;;;;;0.10;0.10;;;2.30;99.90;;;;;;5060680;28;20551;-80
2022/12/11 09:13:06;;;;;;;0.10;0.10;;;2.40;99.90;;;;;;5059306;28;20197;-80
2022/12/11 09:15:32;;;;;;;0.00;0.00;;;2.10;99.90;;;;;;5060957;28;20256;-80
2022/12/11 09:17:57;;;;;;;0.10;0.10;;;2.20;99.90;;;;;;5060385;28;20209;-80
2022/12/11 09:20:23;;;;;;;0.10;0.10;;;2.40;99.90;;;;;;5063517;28;20188;-80
2022/12/11 09:22:48;;;;;;;3.60;3.40;;;2.50;99.90;;;;;;5059659;28;20294;-80
2022/12/11 09:25:14;;;;;;;0.10;0.10;;;2.60;99.90;;;;;;5061352;28;20264;-79
2022/12/11 09:27:40;;;;;;;0.10;0.10;;;2.70;99.90;;;;;;5065690;28;20205;-79
2022/12/11 09:30:06;;;;;;;0.10;0.10;;;2.70;99.90;;;;;;5066078;28;20178;-80
2022/12/11 09:32:32;;;;;;;0.10;0.10;;;2.90;99.90;;;;;;5064176;28;20251;-79
2022/12/11 09:34:58;;;;;;;0.00;0.00;;;3.00;99.90;;;;;;5066845;28;20611;-80
2022/12/11 09:37:23;;;;;;;0.10;0.10;;;3.20;99.90;;;;;;5064778;28;20204;-79
2022/12/11 09:39:49;;;;;;;0.10;0.10;;;3.30;99.90;;;;;;5064455;28;20182;-79
2022/12/11 09:42:28;;;;;;;0.10;0.10;;;3.30;99.90;;;;;;5064532;28;20201;-80
2022/12/11 09:45:00;;;;;;;0.10;0.10;;;2.90;99.90;;;;;;5065958;28;20735;-80
2022/12/11 09:47:37;;;;;;;0.10;0.10;;;2.60;99.90;;;;;;5063085;28;20250;-80
2022/12/11 09:50:08;;;;;;;0.00;0.00;;;2.20;99.90;;;;;;5064930;28;20330;-80
2022/12/11 09:52:43;;;;;;;0.00;0.00;;;2.00;99.90;;;;;;5065673;28;20184;-80
2022/12/11 09:55:19;;;;;;;0.10;0.10;;;2.30;99.90;;;;;;5066362;28;20202;-80
2022/12/11 09:57:49;;;;;;;0.10;0.10;;;2.00;99.90;;;;;;5066019;28;20223;-79
2022/12/11 10:00:38;;;;;;;0.10;0.10;;;1.90;99.90;;;;;;5068025;28;20195;-81
2022/12/11 10:03:18;;;;;;;0.10;0.10;;;2.10;99.90;;;;;;5068751;28;20211;-80
2022/12/11 10:06:02;;;;;;;0.10;0.10;;;2.40;99.90;;;;;;5065971;28;20825;-80
2022/12/11 10:08:40;;;;;;;0.07;0.07;;;2.40;99.90;;;;;;5068128;28;20711;-80
2022/12/11 10:11:35;;;;;;;0.10;0.10;;;2.40;99.90;;;;;;5066706;28;20675;-80
2022/12/11 10:14:55;;;;;;;0.10;0.10;;;2.40;99.90;;;;;;5081800;28;20256;-80
2022/12/11 10:17:27;;;;;;;0.10;0.10;;;2.60;99.90;;;;;;5023239;28;20210;-80
2022/12/11 10:20:03;;;;;;;0.10;0.10;;;2.70;99.90;;;;;;5061796;28;20798;-80
2022/12/11 10:22:31;;;;;;;0.07;0.07;;;2.80;99.90;;;;;;5064716;28;20291;-80
2022/12/11 10:25:01;;;;;;;0.00;0.00;;;2.60;99.90;;;;;;5065066;28;20298;-80
2022/12/11 10:27:32;;;;;;;0.10;0.10;;;2.80;99.90;;;;;;5082981;28;20205;-80
2022/12/11 10:30:13;;;;;;;0.10;0.10;;;2.80;99.90;;;;;;5065639;28;20269;-79
2022/12/11 10:32:48;;;;;;;0.10;0.10;;;2.90;99.90;;;;;;5067552;28;20177;-80
2022/12/11 10:35:26;;;;;;;0.10;0.10;;;3.00;99.90;;;;;;5066717;28;20286;-80
2022/12/11 10:37:56;;;;;;;0.07;0.07;;;3.10;99.90;;;;;;5064863;28;20211;-80
2022/12/11 10:40:24;;;;;;;0.10;0.10;;;2.50;99.90;;;;;;5065561;28;21095;-80
2022/12/11 10:42:53;;;;;;;0.10;0.10;;;2.20;99.90;;;;;;5082100;28;20219;-80
2022/12/11 10:45:19;;;;;;;0.10;0.10;;;2.40;99.90;;;;;;5064992;28;20223;-80
2022/12/11 10:47:45;;;;;;;0.10;0.10;;;2.20;99.90;;;;;;5063883;28;20238;-80
2022/12/11 10:50:24;;;;;;;0.10;0.10;;;2.10;99.90;;;;;;5064916;28;20226;-80
2022/12/11 10:52:51;;;;;;;0.10;0.10;;;2.00;99.90;;;;;;5064727;28;20188;-80
2022/12/11 10:55:24;;;;;;;0.10;0.10;;;1.90;99.90;;;;;;5066103;28;20197;-79
2022/12/11 10:58:16;;;;;;;0.10;0.10;;;1.80;99.90;;;;;;5065539;28;20215;-81
2022/12/11 11:00:41;;;;;;;0.10;0.10;;;2.00;99.90;;;;;;5068981;28;20220;-80
2022/12/11 11:03:21;;;;;;;0.10;0.10;;;2.20;99.90;;;;;;5065624;28;20278;-79
2022/12/11 11:05:49;;;;;;;0.10;0.10;;;2.00;99.90;;;;;;5065956;28;20193;-79
2022/12/11 11:08:21;;;;;;;0.00;0.00;;;1.80;99.90;;;;;;5066332;28;20206;-81
2022/12/11 11:10:54;;;;;;;0.10;0.10;;;1.70;99.90;;;;;;5081243;28;20232;-80
2022/12/11 11:13:23;;;;;;;0.10;0.10;;;1.70;99.90;;;;;;5063418;28;20201;-81
2022/12/11 11:15:57;;;;;;;0.10;0.10;;;1.60;99.90;;;;;;5065823;28;20279;-79
2022/12/11 11:18:25;;;;;;;0.10;0.10;;;1.40;99.90;;;;;;5065474;28;20556;-80
2022/12/11 11:20:52;;;;;;;0.07;0.07;;;1.40;99.90;;;;;;5065801;28;20205;-80
2022/12/11 11:23:20;;;;;;;0.10;0.10;;;1.60;99.90;;;;;;5064577;28;20272;-80
2022/12/11 11:26:06;;;;;;;0.10;0.10;;;1.80;99.90;;;;;;5063590;28;20771;-80
2022/12/11 11:28:39;;;;;;;0.10;0.10;;;1.80;99.90;;;;;;5063162;28;20214;-80
2022/12/11 11:31:16;;;;;;;0.10;0.10;;;1.90;99.90;;;;;;5064969;28;20179;-80
2022/12/11 11:33:56;;;;;;;0.10;0.10;;;2.00;99.90;;;;;;5062823;28;20181;-81
2022/12/11 11:36:33;;;;;;;0.10;0.10;;;2.10;99.90;;;;;;5081780;28;20200;-80
2022/12/11 11:39:18;;;;;;;0.10;0.10;;;1.50;99.90;;;;;;5081335;28;20567;-81
2022/12/11 11:42:02;;;;;;;0.10;0.10;;;1.70;99.90;;;;;;5062999;28;20302;-80
2022/12/11 11:44:41;;;;;;;0.10;0.10;;;2.10;99.90;;;;;;5064564;28;20183;-81
2022/12/11 11:47:16;;;;;;;0.10;0.10;;;1.60;99.90;;;;;;5061939;28;20266;-81
2022/12/11 11:50:02;;;;;;;0.00;0.00;;;1.90;99.90;;;;;;5079999;28;20220;-79
2022/12/11 11:52:52;;;;;;;0.10;0.10;;;1.60;99.90;;;;;;5065602;28;20231;-80
2022/12/11 11:55:24;;;;;;;0.10;0.10;;;1.40;99.90;;;;;;5064897;28;20186;-80
2022/12/11 11:57:59;;;;;;;0.10;0.10;;;1.70;99.90;;;;;;5067248;28;20654;-80
2022/12/11 12:00:27;;;;;;;0.10;0.10;;;1.60;99.90;;;;;;5066053;28;20189;-79
2022/12/11 12:03:00;;;;;;;0.10;0.10;;;1.80;99.90;;;;;;5064109;28;20206;-79
2022/12/11 12:05:41;;;;;;;0.10;0.10;;;1.40;99.90;;;;;;5065242;28;20678;-81
2022/12/11 12:08:15;;;;;;;0.10;0.10;;;1.70;99.90;;;;;;5065118;28;20209;-80
2022/12/11 12:10:52;;;;;;;0.10;0.10;;;2.00;99.90;;;;;;5063984;28;20194;-80
2022/12/11 12:13:31;;;;;;;0.10;0.10;;;2.00;99.90;;;;;;5066448;28;20193;-80
2022/12/11 12:15:59;;;;;;;0.10;0.10;;;2.10;99.90;;;;;;5063728;28;20727;-80
2022/12/11 12:18:46;;;;;;;0.10;0.10;;;2.10;99.90;;;;;;5064028;28;20286;-80
2022/12/11 12:21:35;;;;;;;0.10;0.10;;;2.30;99.90;;;;;;5065496;28;20913;-80
2022/12/11 12:24:45;;;;;;;0.00;0.00;;;2.40;99.90;;;;;;5064636;28;20736;-80
2022/12/11 12:27:34;;;;;;;0.00;0.00;;;2.30;99.90;;;;;;5054036;28;20287;-80
2022/12/11 12:30:10;;;;;;;0.10;0.10;;;1.60;99.90;;;;;;5091107;28;20214;-80
2022/12/11 12:32:54;;;;;;;0.10;0.10;;;1.60;99.90;;;;;;5075738;28;20187;-80
2022/12/11 12:35:39;;;;;;;0.10;0.10;;;1.80;99.90;;;;;;5094585;28;20175;-80
2022/12/11 12:38:36;;;;;;;0.20;0.20;;;2.20;99.90;;;;;;5078133;28;20205;-80
2022/12/11 12:41:19;;;;;;;0.10;0.10;;;2.20;99.90;;;;;;5061980;28;20184;-79
2022/12/11 12:44:03;;;;;;;0.00;0.00;;;1.90;99.90;;;;;;5067154;28;20201;-79
2022/12/11 12:46:46;;;;;;;0.10;0.10;;;2.10;99.90;;;;;;5070382;28;20644;-79
2022/12/11 12:49:26;;;;;;;0.03;0.03;;;2.00;99.90;;;;;;5067090;28;20183;-79
2022/12/11 12:51:52;;;;;;;0.10;0.10;;;2.00;99.90;;;;;;5085703;28;20284;-79
2022/12/11 12:54:19;;;;;;;0.10;0.10;;;2.10;99.90;;;;;;5068216;28;20179;-79
2022/12/11 12:56:47;;;;;;;0.00;0.00;;;2.20;99.90;;;;;;5067349;28;20278;-79
2022/12/11 12:59:24;;;;;;;0.10;0.10;;;2.30;99.90;;;;;;5066615;28;20581;-79
2022/12/11 13:01:55;;;;;;;0.10;0.10;;;2.40;99.90;;;;;;5067070;28;20194;-79
2022/12/11 13:04:42;;;;;;;0.10;0.10;;;2.20;99.90;;;;;;5066332;28;20277;-79
2022/12/11 13:07:22;;;;;;;0.10;0.10;;;1.80;99.90;;;;;;5066555;28;20557;-79
2022/12/11 13:10:20;;;;;;;0.00;0.00;;;1.80;99.90;;;;;;5068846;28;20175;-79
2022/12/11 13:12:47;;;;;;;0.10;0.10;;;1.80;99.90;;;;;;5067314;28;20191;-79
2022/12/11 13:15:29;;;;;;;0.00;0.00;;;2.10;99.90;;;;;;5066320;28;20201;-79
2022/12/11 13:17:54;;;;;;;0.10;0.10;;;1.80;99.90;;;;;;5064744;28;20219;-79
2022/12/11 13:20:27;;;;;;;0.00;0.00;;;1.80;99.90;;;;;;5062942;28;20561;-80
2022/12/11 13:23:04;;;;;;;0.10;0.10;;;1.20;99.90;;;;;;5064489;28;21398;-79
2022/12/11 13:25:32;;;;;;;0.00;0.00;;;0.80;99.90;;;;;;5065268;28;20192;-79
2022/12/11 13:28:19;;;;;;;0.10;0.10;;;1.00;99.90;;;;;;5064034;28;20244;-79
2022/12/11 13:31:15;;;;;;;0.10;0.10;;;0.80;99.90;;;;;;5062881;28;20178;-79